Time;durP1;ratioP1;P1;durP2;ratioP2;P2;SDS_P1;SDS_P2;PMS_P1;PMS_P2;Temp;Humidity;BMP_temperature;BMP_pressure;BME280_temperature;BME280_humidity;BME280_pressure;Samples;Min_cycle;Max_cycle;Signal;HPM_P1;HPM_P2
2021/09/17 00:01:32;;;;;;;19.25;13.85;;;;;;;;;;6186659;23;20013;-67
2021/09/17 00:03:58;;;;;;;13.65;11.80;;;;;;;;;;6186378;23;20003;-68
2021/09/17 00:06:23;;;;;;;16.92;13.02;;;;;;;;;;6186507;23;20032;-69
2021/09/17 00:08:49;;;;;;;14.60;12.43;;;;;;;;;;6185178;23;20004;-67
2021/09/17 00:11:14;;;;;;;14.40;11.45;;;;;;;;;;6184888;23;20059;-68
2021/09/17 00:13:40;;;;;;;14.15;12.07;;;;;;;;;;6184747;23;20306;-68
2021/09/17 00:16:05;;;;;;;12.95;11.52;;;;;;;;;;6186204;23;20016;-67
2021/09/17 00:18:30;;;;;;;12.75;11.02;;;;;;;;;;6186095;23;20429;-67
2021/09/17 00:20:56;;;;;;;16.40;12.65;;;;;;;;;;6186321;23;20091;-68
2021/09/17 00:23:21;;;;;;;13.15;11.45;;;;;;;;;;6186512;23;20001;-68
2021/09/17 00:25:47;;;;;;;13.95;11.75;;;;;;;;;;6186104;23;20068;-68
2021/09/17 00:28:13;;;;;;;16.23;12.70;;;;;;;;;;6186193;23;20425;-68
2021/09/17 00:30:38;;;;;;;15.07;12.38;;;;;;;;;;6186398;23;20294;-68
2021/09/17 00:33:04;;;;;;;13.25;11.68;;;;;;;;;;6186214;23;19997;-68
2021/09/17 00:35:30;;;;;;;13.57;11.18;;;;;;;;;;6185319;23;20028;-69
2021/09/17 00:37:55;;;;;;;14.98;11.15;;;;;;;;;;6186072;23;20005;-69
2021/09/17 00:40:21;;;;;;;15.98;12.65;;;;;;;;;;6186380;23;20036;-69
2021/09/17 00:42:46;;;;;;;16.60;12.35;;;;;;;;;;6185992;23;19997;-68
2021/09/17 00:45:13;;;;;;;12.73;11.00;;;;;;;;;;6186372;23;20009;-68
2021/09/17 00:47:39;;;;;;;13.40;11.18;;;;;;;;;;6186389;23;19993;-67
2021/09/17 00:50:06;;;;;;;14.13;11.60;;;;;;;;;;6186201;23;20001;-67
2021/09/17 00:52:32;;;;;;;13.63;11.65;;;;;;;;;;6184819;23;20444;-60
2021/09/17 00:54:57;;;;;;;14.73;11.75;;;;;;;;;;6185973;23;20011;-60
2021/09/17 00:57:23;;;;;;;14.25;10.88;;;;;;;;;;6186089;23;20001;-60
2021/09/17 00:59:49;;;;;;;14.73;11.18;;;;;;;;;;6186213;23;20009;-60
2021/09/17 01:02:14;;;;;;;13.90;10.55;;;;;;;;;;6185939;23;20008;-60
2021/09/17 01:04:40;;;;;;;17.08;11.68;;;;;;;;;;6185976;23;20088;-60
2021/09/17 01:07:06;;;;;;;11.98;10.15;;;;;;;;;;6186136;23;20001;-60
2021/09/17 01:09:32;;;;;;;12.82;11.00;;;;;;;;;;6185710;23;20008;-60
2021/09/17 01:12:03;;;;;;;13.27;10.15;;;;;;;;;;6186282;23;20008;-60
2021/09/17 01:14:34;;;;;;;13.50;11.15;;;;;;;;;;6186236;23;20372;-60
2021/09/17 01:17:00;;;;;;;12.80;10.25;;;;;;;;;;6185860;23;20084;-60
2021/09/17 01:19:25;;;;;;;11.55;10.35;;;;;;;;;;6185803;23;20004;-60
2021/09/17 01:21:58;;;;;;;13.75;11.70;;;;;;;;;;6185819;23;20009;-68
2021/09/17 01:24:24;;;;;;;16.92;13.32;;;;;;;;;;6185956;23;20008;-67
2021/09/17 01:26:49;;;;;;;14.13;11.07;;;;;;;;;;6185481;23;19997;-67
2021/09/17 01:29:15;;;;;;;14.70;12.57;;;;;;;;;;6185803;23;20033;-68
2021/09/17 01:31:40;;;;;;;14.85;12.45;;;;;;;;;;6186087;23;20001;-67
2021/09/17 01:34:07;;;;;;;12.90;11.43;;;;;;;;;;6186063;23;20005;-67
2021/09/17 01:36:33;;;;;;;15.38;13.15;;;;;;;;;;6185824;23;20017;-68
2021/09/17 01:38:58;;;;;;;15.32;12.15;;;;;;;;;;6185899;23;20501;-68
2021/09/17 01:41:24;;;;;;;15.30;12.18;;;;;;;;;;6186099;23;20401;-68
2021/09/17 01:43:49;;;;;;;14.48;12.93;;;;;;;;;;6186001;23;20300;-68
2021/09/17 01:46:15;;;;;;;15.30;13.23;;;;;;;;;;6186020;23;20002;-69
2021/09/17 01:48:41;;;;;;;15.13;12.80;;;;;;;;;;6186156;23;20001;-69
2021/09/17 01:51:06;;;;;;;15.27;13.65;;;;;;;;;;6185843;23;20004;-68
2021/09/17 01:53:34;;;;;;;14.27;11.18;;;;;;;;;;6185660;23;20009;-68
2021/09/17 01:56:00;;;;;;;15.15;12.90;;;;;;;;;;6185754;23;20496;-69
2021/09/17 01:58:25;;;;;;;17.55;14.25;;;;;;;;;;6185740;23;20009;-69
2021/09/17 02:00:51;;;;;;;14.90;13.23;;;;;;;;;;6185953;23;19996;-69
2021/09/17 02:03:17;;;;;;;17.55;14.07;;;;;;;;;;6185935;23;20032;-69
2021/09/17 02:05:42;;;;;;;16.13;13.25;;;;;;;;;;6185851;23;20029;-69
2021/09/17 02:08:08;;;;;;;20.80;13.68;;;;;;;;;;6185983;23;20098;-68
2021/09/17 02:10:33;;;;;;;14.77;12.40;;;;;;;;;;6186001;23;20001;-69
2021/09/17 02:12:59;;;;;;;13.77;11.75;;;;;;;;;;6186131;23;20365;-67
2021/09/17 02:15:24;;;;;;;13.80;12.35;;;;;;;;;;6185732;23;19997;-68
2021/09/17 02:17:50;;;;;;;17.25;13.88;;;;;;;;;;6185992;23;20009;-68
2021/09/17 02:20:15;;;;;;;15.50;12.27;;;;;;;;;;6184817;23;20108;-68
2021/09/17 02:22:41;;;;;;;12.18;10.05;;;;;;;;;;6187354;23;20013;-68
2021/09/17 02:25:07;;;;;;;13.55;10.90;;;;;;;;;;6187799;23;20290;-68
2021/09/17 02:27:32;;;;;;;16.08;12.40;;;;;;;;;;6187811;23;20009;-60
2021/09/17 02:29:58;;;;;;;12.18;9.82;;;;;;;;;;6187625;23;20004;-60
2021/09/17 02:32:23;;;;;;;11.90;10.63;;;;;;;;;;6187381;23;20035;-60
2021/09/17 02:34:49;;;;;;;11.55;10.35;;;;;;;;;;6187189;23;20059;-60
2021/09/17 02:37:15;;;;;;;13.35;10.05;;;;;;;;;;6186252;23;20091;-60
2021/09/17 02:39:40;;;;;;;13.90;9.93;;;;;;;;;;6187516;23;20005;-60
2021/09/17 02:42:06;;;;;;;11.40;10.20;;;;;;;;;;6187186;23;20091;-60
2021/09/17 02:44:32;;;;;;;10.30;8.85;;;;;;;;;;6187282;23;20055;-60
2021/09/17 02:46:57;;;;;;;10.23;9.23;;;;;;;;;;6187252;23;20315;-60
2021/09/17 02:49:24;;;;;;;10.07;8.35;;;;;;;;;;6187154;23;20047;-60
2021/09/17 02:51:49;;;;;;;9.07;8.00;;;;;;;;;;6187463;23;20433;-60
2021/09/17 02:54:15;;;;;;;8.95;8.15;;;;;;;;;;6187208;23;20028;-60
2021/09/17 02:56:40;;;;;;;9.32;7.90;;;;;;;;;;6187168;23;20005;-60
2021/09/17 02:59:07;;;;;;;8.00;6.88;;;;;;;;;;6187166;23;20020;-60
2021/09/17 03:01:32;;;;;;;8.35;7.38;;;;;;;;;;6187207;23;20499;-60
2021/09/17 03:03:58;;;;;;;6.55;5.95;;;;;;;;;;6187106;23;20007;-60
2021/09/17 03:06:23;;;;;;;7.32;5.53;;;;;;;;;;6187266;23;20005;-68
2021/09/17 03:08:49;;;;;;;7.13;6.43;;;;;;;;;;6187162;23;19997;-68
2021/09/17 03:11:15;;;;;;;8.60;7.05;;;;;;;;;;6186973;23;20329;-60
2021/09/17 03:13:40;;;;;;;10.00;8.27;;;;;;;;;;6186416;23;20417;-61
2021/09/17 03:16:07;;;;;;;8.45;7.05;;;;;;;;;;6187075;23;20360;-62
2021/09/17 03:18:33;;;;;;;8.60;7.72;;;;;;;;;;6185328;23;20084;-61
2021/09/17 03:20:58;;;;;;;9.85;8.48;;;;;;;;;;6186852;23;20028;-60
2021/09/17 03:23:24;;;;;;;8.88;7.97;;;;;;;;;;6186858;23;20306;-60
2021/09/17 03:25:49;;;;;;;8.20;7.15;;;;;;;;;;6187181;23;20028;-60
2021/09/17 03:28:14;;;;;;;8.23;7.50;;;;;;;;;;6187380;23;19997;-60
2021/09/17 03:30:41;;;;;;;10.00;7.70;;;;;;;;;;6160744;23;20016;-60
2021/09/17 03:33:09;;;;;;;9.75;7.80;;;;;;;;;;6186743;23;20039;-60
2021/09/17 03:35:36;;;;;;;10.43;8.48;;;;;;;;;;6186372;23;20341;-60
2021/09/17 03:38:01;;;;;;;9.70;8.65;;;;;;;;;;6186978;23;20016;-60
2021/09/17 03:40:27;;;;;;;8.07;7.40;;;;;;;;;;6187216;23;20005;-60
2021/09/17 03:42:52;;;;;;;8.95;8.05;;;;;;;;;;6186748;23;20317;-60
2021/09/17 03:45:18;;;;;;;10.15;8.00;;;;;;;;;;6187006;23;20052;-60
2021/09/17 03:47:43;;;;;;;8.32;7.53;;;;;;;;;;6186888;23;20000;-60
2021/09/17 03:50:09;;;;;;;8.70;7.85;;;;;;;;;;6187022;23;20005;-60
2021/09/17 03:52:35;;;;;;;8.70;7.82;;;;;;;;;;6186887;23;20005;-60
2021/09/17 03:55:00;;;;;;;7.13;6.53;;;;;;;;;;6185156;23;20020;-60
2021/09/17 03:57:26;;;;;;;7.93;7.20;;;;;;;;;;6187005;23;20306;-60
2021/09/17 03:59:51;;;;;;;6.80;6.22;;;;;;;;;;6186567;23;20009;-60
2021/09/17 04:02:17;;;;;;;7.35;6.45;;;;;;;;;;6186346;23;20448;-60
2021/09/17 04:04:42;;;;;;;7.20;6.00;;;;;;;;;;6186768;23;20404;-60
2021/09/17 04:07:08;;;;;;;7.18;6.43;;;;;;;;;;6186224;23;20004;-60
2021/09/17 04:09:34;;;;;;;7.10;5.75;;;;;;;;;;6186443;23;20120;-60
2021/09/17 04:12:00;;;;;;;5.97;5.50;;;;;;;;;;6186427;23;20381;-60
2021/09/17 04:14:26;;;;;;;5.90;4.90;;;;;;;;;;6186372;23;20005;-60
2021/09/17 04:16:51;;;;;;;4.35;3.97;;;;;;;;;;6186581;23;20001;-60
2021/09/17 04:19:17;;;;;;;4.50;4.20;;;;;;;;;;6186247;23;20004;-60
2021/09/17 04:21:44;;;;;;;3.75;3.45;;;;;;;;;;6186300;23;19997;-60
2021/09/17 04:24:09;;;;;;;4.75;4.18;;;;;;;;;;6186382;23;20381;-68
2021/09/17 04:26:35;;;;;;;5.93;4.70;;;;;;;;;;6186373;23;19998;-68
2021/09/17 04:29:00;;;;;;;5.10;4.63;;;;;;;;;;6185173;23;20005;-68
2021/09/17 04:31:26;;;;;;;5.03;4.63;;;;;;;;;;6186479;23;20417;-68
2021/09/17 04:33:52;;;;;;;4.07;3.78;;;;;;;;;;6184827;23;20452;-68
2021/09/17 04:36:17;;;;;;;4.40;4.00;;;;;;;;;;6186024;23;20322;-68
2021/09/17 04:38:43;;;;;;;4.18;3.05;;;;;;;;;;6186134;23;20074;-60
2021/09/17 04:41:08;;;;;;;3.00;2.80;;;;;;;;;;6186278;23;20075;-60
2021/09/17 04:43:34;;;;;;;2.80;2.60;;;;;;;;;;6185705;23;20004;-60
2021/09/17 04:46:00;;;;;;;3.35;2.50;;;;;;;;;;6186019;23;20044;-60
2021/09/17 04:48:25;;;;;;;2.53;2.33;;;;;;;;;;6185912;23;20441;-60
2021/09/17 04:50:51;;;;;;;3.00;2.80;;;;;;;;;;6186051;23;20028;-60
2021/09/17 04:53:16;;;;;;;3.13;2.92;;;;;;;;;;6185972;23;20005;-60
2021/09/17 04:55:42;;;;;;;3.42;3.10;;;;;;;;;;6186465;23;20001;-60
2021/09/17 04:58:08;;;;;;;4.18;3.13;;;;;;;;;;6185914;23;20016;-60
2021/09/17 05:00:35;;;;;;;2.28;2.17;;;;;;;;;;6185698;23;20079;-60
2021/09/17 05:03:00;;;;;;;2.70;2.03;;;;;;;;;;6185944;23;20013;-60
2021/09/17 05:05:26;;;;;;;2.28;1.92;;;;;;;;;;6186222;23;20330;-60
2021/09/17 05:07:52;;;;;;;2.05;1.95;;;;;;;;;;6186133;23;20057;-69
2021/09/17 05:10:18;;;;;;;1.90;1.80;;;;;;;;;;6184347;23;20000;-69
2021/09/17 05:12:44;;;;;;;1.90;1.70;;;;;;;;;;6185523;23;20005;-68
2021/09/17 05:15:10;;;;;;;2.25;2.15;;;;;;;;;;6185866;23;20048;-69
2021/09/17 05:17:35;;;;;;;2.40;2.20;;;;;;;;;;6185802;23;20504;-60
2021/09/17 05:20:01;;;;;;;2.58;2.28;;;;;;;;;;6184184;23;20024;-61
2021/09/17 05:22:27;;;;;;;3.20;2.10;;;;;;;;;;6185618;23;20015;-61
2021/09/17 05:24:53;;;;;;;2.60;2.20;;;;;;;;;;6185743;23;19993;-61
2021/09/17 05:27:19;;;;;;;3.00;2.22;;;;;;;;;;6186277;23;20009;-60
2021/09/17 05:29:44;;;;;;;1.92;1.83;;;;;;;;;;6186264;23;19997;-60
2021/09/17 05:32:10;;;;;;;1.90;1.80;;;;;;;;;;6186232;23;20005;-60
2021/09/17 05:34:36;;;;;;;1.80;1.70;;;;;;;;;;6185772;23;20001;-60
2021/09/17 05:37:02;;;;;;;1.95;1.67;;;;;;;;;;6186180;23;20013;-60
2021/09/17 05:39:28;;;;;;;2.55;1.40;;;;;;;;;;6185822;23;20005;-68
2021/09/17 05:41:53;;;;;;;1.58;1.30;;;;;;;;;;6185384;23;20131;-68
2021/09/17 05:44:19;;;;;;;1.13;1.13;;;;;;;;;;6185693;23;19999;-69
2021/09/17 05:46:45;;;;;;;1.00;1.00;;;;;;;;;;6185516;23;20001;-69
2021/09/17 05:49:11;;;;;;;1.48;1.40;;;;;;;;;;6185670;23;19997;-68
2021/09/17 05:51:37;;;;;;;1.25;1.15;;;;;;;;;;6186217;23;20305;-68
2021/09/17 05:54:02;;;;;;;1.77;1.20;;;;;;;;;;6183718;23;19997;-68
2021/09/17 05:56:32;;;;;;;1.40;1.30;;;;;;;;;;6187625;23;20088;-68
2021/09/17 05:58:58;;;;;;;1.25;1.10;;;;;;;;;;6187084;23;20009;-68
2021/09/17 06:01:23;;;;;;;1.77;1.05;;;;;;;;;;6187476;23;20008;-68
2021/09/17 06:03:49;;;;;;;1.10;1.10;;;;;;;;;;6185492;23;20005;-68
2021/09/17 06:06:17;;;;;;;1.38;1.13;;;;;;;;;;6187115;23;20008;-68
2021/09/17 06:08:43;;;;;;;1.95;1.20;;;;;;;;;;6186991;23;20449;-68
2021/09/17 06:11:08;;;;;;;2.50;1.10;;;;;;;;;;6186950;23;20000;-68
2021/09/17 06:13:34;;;;;;;2.28;1.30;;;;;;;;;;6187163;23;20437;-68
2021/09/17 06:15:59;;;;;;;1.40;1.30;;;;;;;;;;6186102;23;20024;-68
2021/09/17 06:18:25;;;;;;;1.73;1.40;;;;;;;;;;6186916;23;20385;-69
2021/09/17 06:20:50;;;;;;;1.15;1.13;;;;;;;;;;6186093;23;20337;-68
2021/09/17 06:23:16;;;;;;;1.35;1.25;;;;;;;;;;6187505;23;20005;-68
2021/09/17 06:25:41;;;;;;;1.30;1.20;;;;;;;;;;6186018;23;19997;-69
2021/09/17 06:28:08;;;;;;;1.35;1.02;;;;;;;;;;6187435;23;20084;-69
2021/09/17 06:30:34;;;;;;;1.33;1.23;;;;;;;;;;6187693;23;20004;-69
2021/09/17 06:33:00;;;;;;;1.50;1.40;;;;;;;;;;6187839;23;20005;-70
2021/09/17 06:35:25;;;;;;;1.38;1.25;;;;;;;;;;6187427;23;20017;-69
2021/09/17 06:37:52;;;;;;;1.13;1.13;;;;;;;;;;6187375;23;20091;-69
2021/09/17 06:40:18;;;;;;;1.67;1.58;;;;;;;;;;6187584;23;20020;-68
2021/09/17 06:42:44;;;;;;;1.30;1.20;;;;;;;;;;6185860;23;20088;-69
2021/09/17 06:45:10;;;;;;;1.48;1.38;;;;;;;;;;6186112;23;20029;-69
2021/09/17 06:48:02;;;;;;;1.50;1.38;;;;;;;;;;6186539;23;20005;-68
2021/09/17 06:50:28;;;;;;;1.45;1.35;;;;;;;;;;6182656;23;20009;-68
2021/09/17 06:53:00;;;;;;;1.95;1.40;;;;;;;;;;6187161;23;20004;-69
2021/09/17 06:55:27;;;;;;;1.25;1.13;;;;;;;;;;6187517;23;20005;-68
2021/09/17 06:57:53;;;;;;;1.83;1.63;;;;;;;;;;6187179;23;20381;-66
2021/09/17 07:00:20;;;;;;;2.08;1.88;;;;;;;;;;6187426;23;20005;-67
2021/09/17 07:02:46;;;;;;;2.20;1.90;;;;;;;;;;6186985;23;20383;-67
2021/09/17 07:05:12;;;;;;;1.98;1.88;;;;;;;;;;6187310;23;20001;-68
2021/09/17 07:07:38;;;;;;;1.90;1.80;;;;;;;;;;6186742;23;20021;-68
2021/09/17 07:10:04;;;;;;;3.15;1.75;;;;;;;;;;6187102;23;20005;-68
2021/09/17 07:12:30;;;;;;;2.97;1.90;;;;;;;;;;6187461;23;20001;-68
2021/09/17 07:14:56;;;;;;;1.50;1.40;;;;;;;;;;6187267;23;20016;-68
2021/09/17 07:17:21;;;;;;;1.75;1.60;;;;;;;;;;6185624;23;20005;-68
2021/09/17 07:19:47;;;;;;;1.52;1.42;;;;;;;;;;6187024;23;20083;-68
2021/09/17 07:22:12;;;;;;;1.83;1.52;;;;;;;;;;6185134;23;20418;-68
2021/09/17 07:24:38;;;;;;;1.42;1.33;;;;;;;;;;6186886;23;20001;-60
2021/09/17 07:27:03;;;;;;;1.63;1.20;;;;;;;;;;6186805;23;19993;-68
2021/09/17 07:29:29;;;;;;;1.35;1.25;;;;;;;;;;6186930;23;20005;-68
2021/09/17 07:31:54;;;;;;;1.42;1.33;;;;;;;;;;6186992;23;20465;-69
2021/09/17 07:34:20;;;;;;;2.17;1.52;;;;;;;;;;6186861;23;20012;-68
2021/09/17 07:36:45;;;;;;;1.88;1.70;;;;;;;;;;6178130;23;20093;-68
2021/09/17 07:39:11;;;;;;;1.80;1.70;;;;;;;;;;6182229;23;20059;-69
2021/09/17 07:41:40;;;;;;;1.67;1.58;;;;;;;;;;6180241;23;20143;-69
2021/09/17 07:44:05;;;;;;;3.35;1.85;;;;;;;;;;6182180;23;20507;-69
2021/09/17 07:46:31;;;;;;;1.75;1.65;;;;;;;;;;6181899;23;19992;-67
2021/09/17 07:48:57;;;;;;;3.38;1.98;;;;;;;;;;6182043;23;20109;-68
2021/09/17 07:51:22;;;;;;;1.92;1.83;;;;;;;;;;6181794;23;20305;-68
2021/09/17 07:53:48;;;;;;;1.98;1.77;;;;;;;;;;6182031;23;20337;-69
2021/09/17 07:56:14;;;;;;;2.03;1.80;;;;;;;;;;6181540;23;20008;-69
2021/09/17 07:58:39;;;;;;;2.00;1.88;;;;;;;;;;6180079;23;20020;-69
2021/09/17 08:01:05;;;;;;;1.92;1.83;;;;;;;;;;6181760;23;20055;-69
2021/09/17 08:03:32;;;;;;;1.80;1.70;;;;;;;;;;6181759;23;20009;-69
2021/09/17 08:06:00;;;;;;;1.67;1.58;;;;;;;;;;6181826;23;20001;-68
2021/09/17 08:08:26;;;;;;;1.98;1.65;;;;;;;;;;6181915;23;20009;-68
2021/09/17 08:10:52;;;;;;;2.20;1.90;;;;;;;;;;6181819;23;20035;-68
2021/09/17 08:13:17;;;;;;;1.65;1.33;;;;;;;;;;6181561;23;20112;-69
2021/09/17 08:15:43;;;;;;;2.55;1.65;;;;;;;;;;6181794;23;20001;-69
2021/09/17 08:18:08;;;;;;;1.60;1.50;;;;;;;;;;6180260;23;20016;-69
2021/09/17 08:20:34;;;;;;;1.48;1.38;;;;;;;;;;6180394;23;20343;-68
2021/09/17 08:23:00;;;;;;;1.60;1.40;;;;;;;;;;6181861;23;20337;-69
2021/09/17 08:25:26;;;;;;;1.48;1.38;;;;;;;;;;6181745;23;19997;-68
2021/09/17 08:27:52;;;;;;;1.27;1.20;;;;;;;;;;6181536;23;20337;-69
2021/09/17 08:30:18;;;;;;;1.30;1.20;;;;;;;;;;6181852;23;20003;-68
2021/09/17 08:32:46;;;;;;;1.33;1.23;;;;;;;;;;6182274;23;20449;-68
2021/09/17 08:35:13;;;;;;;2.50;1.25;;;;;;;;;;6181337;23;20017;-69
2021/09/17 08:37:39;;;;;;;3.75;1.40;;;;;;;;;;6181888;23;20405;-68
2021/09/17 08:40:05;;;;;;;1.45;1.30;;;;;;;;;;6181733;23;20441;-66
2021/09/17 08:42:32;;;;;;;1.63;1.20;;;;;;;;;;6179983;23;20015;-69
2021/09/17 08:45:00;;;;;;;1.00;1.00;;;;;;;;;;6181684;23;20707;-69
2021/09/17 08:47:26;;;;;;;1.20;1.10;;;;;;;;;;6179775;23;20519;-68
2021/09/17 08:49:52;;;;;;;1.35;1.30;;;;;;;;;;6181385;23;20520;-68
2021/09/17 08:52:20;;;;;;;1.30;1.17;;;;;;;;;;6179949;23;20020;-68
2021/09/17 08:54:45;;;;;;;1.20;1.10;;;;;;;;;;6181761;23;20001;-68
2021/09/17 08:57:11;;;;;;;1.15;1.15;;;;;;;;;;6180984;23;20449;-68
2021/09/17 08:59:36;;;;;;;1.67;1.20;;;;;;;;;;6181304;23;20005;-68
2021/09/17 09:02:40;;;;;;;1.02;1.02;;;;;;;;;;6181118;23;20039;-68
2021/09/17 09:05:07;;;;;;;1.83;1.27;;;;;;;;;;6089336;23;20010;-68
2021/09/17 09:07:35;;;;;;;1.10;1.08;;;;;;;;;;6164430;23;20441;-68
2021/09/17 09:10:13;;;;;;;1.60;1.25;;;;;;;;;;6181635;23;20029;-68
2021/09/17 09:12:43;;;;;;;20.85;12.43;;;;;;;;;;6179615;23;20084;-68
2021/09/17 09:15:19;;;;;;;1.48;1.33;;;;;;;;;;6181589;23;20854;-68
2021/09/17 09:17:46;;;;;;;1.15;1.15;;;;;;;;;;6181001;23;20013;-69
2021/09/17 09:20:21;;;;;;;1.55;1.45;;;;;;;;;;6181262;23;20008;-69
2021/09/17 09:23:07;;;;;;;1.52;1.42;;;;;;;;;;6181557;23;20013;-69
2021/09/17 09:25:34;;;;;;;2.03;1.65;;;;;;;;;;6178824;23;20394;-69
2021/09/17 09:28:19;;;;;;;1.55;1.30;;;;;;;;;;6181195;23;20051;-68
2021/09/17 09:30:45;;;;;;;1.42;1.33;;;;;;;;;;6180253;23;20013;-68
2021/09/17 09:33:28;;;;;;;1.67;1.40;;;;;;;;;;6181491;23;20012;-68
2021/09/17 09:35:58;;;;;;;1.50;1.40;;;;;;;;;;6180321;23;20464;-69
2021/09/17 09:38:31;;;;;;;1.63;1.30;;;;;;;;;;6181463;23;20009;-69
2021/09/17 09:40:59;;;;;;;1.70;1.60;;;;;;;;;;6181214;23;20040;-68
2021/09/17 09:43:28;;;;;;;1.50;1.42;;;;;;;;;;6180904;23;20008;-68
2021/09/17 09:45:54;;;;;;;1.77;1.58;;;;;;;;;;6181032;23;20010;-68
2021/09/17 09:48:19;;;;;;;1.98;1.48;;;;;;;;;;6181298;23;20108;-69
2021/09/17 09:50:45;;;;;;;1.67;1.58;;;;;;;;;;6181079;23;20342;-69
2021/09/17 09:53:14;;;;;;;1.65;1.55;;;;;;;;;;6180995;23;20001;-68
2021/09/17 09:55:40;;;;;;;1.50;1.40;;;;;;;;;;6181072;23;20008;-68
2021/09/17 09:58:06;;;;;;;1.60;1.50;;;;;;;;;;6180924;23;20012;-68
2021/09/17 10:00:32;;;;;;;1.83;1.73;;;;;;;;;;6181001;23;20029;-68
2021/09/17 10:02:58;;;;;;;1.83;1.73;;;;;;;;;;6179351;23;20084;-67
2021/09/17 10:05:26;;;;;;;2.05;1.83;;;;;;;;;;6180872;23;20092;-68
2021/09/17 10:07:58;;;;;;;2.85;1.70;;;;;;;;;;6180880;23;19997;-68
2021/09/17 10:10:25;;;;;;;1.67;1.58;;;;;;;;;;6180769;23;20009;-68
2021/09/17 10:12:50;;;;;;;1.70;1.60;;;;;;;;;;6181084;23;20004;-68
2021/09/17 10:15:17;;;;;;;1.92;1.73;;;;;;;;;;6181033;23;20009;-68
2021/09/17 10:17:48;;;;;;;1.90;1.80;;;;;;;;;;6180564;23;20044;-68
2021/09/17 10:20:14;;;;;;;2.00;1.88;;;;;;;;;;6181057;23;20032;-69
2021/09/17 10:22:40;;;;;;;2.13;2.03;;;;;;;;;;6179217;23;20310;-69
2021/09/17 10:25:09;;;;;;;2.35;2.15;;;;;;;;;;6180814;23;20128;-69
2021/09/17 10:27:34;;;;;;;2.70;2.50;;;;;;;;;;6180640;23;20123;-69
2021/09/17 10:30:01;;;;;;;2.70;2.50;;;;;;;;;;6181041;23;20108;-69
2021/09/17 10:32:26;;;;;;;2.55;2.45;;;;;;;;;;6181027;23;20009;-68
2021/09/17 10:35:02;;;;;;;4.07;2.35;;;;;;;;;;6180818;23;20039;-69
2021/09/17 10:38:00;;;;;;;2.78;2.58;;;;;;;;;;6180733;23;20013;-69
2021/09/17 10:40:32;;;;;;;3.15;2.67;;;;;;;;;;6130508;23;20016;-69
2021/09/17 10:43:10;;;;;;;2.90;2.72;;;;;;;;;;6181377;23;20017;-69
2021/09/17 10:45:38;;;;;;;3.72;2.75;;;;;;;;;;6181851;23;20005;-69
2021/09/17 10:48:05;;;;;;;2.78;2.60;;;;;;;;;;6181909;23;20468;-69
2021/09/17 10:50:41;;;;;;;2.85;2.65;;;;;;;;;;6182707;23;20005;-69
2021/09/17 10:53:07;;;;;;;2.92;2.72;;;;;;;;;;6182674;23;20036;-69
2021/09/17 10:55:45;;;;;;;4.63;3.00;;;;;;;;;;6182562;23;20005;-69
2021/09/17 10:58:19;;;;;;;4.47;2.97;;;;;;;;;;6181664;23;20100;-68
2021/09/17 11:00:51;;;;;;;3.22;2.90;;;;;;;;;;6182168;23;20016;-68
2021/09/17 11:03:35;;;;;;;2.72;2.58;;;;;;;;;;6182213;23;20017;-69
2021/09/17 11:06:27;;;;;;;3.20;3.00;;;;;;;;;;6182526;23;20040;-69
2021/09/17 11:09:03;;;;;;;3.05;2.72;;;;;;;;;;6178460;23;20013;-69
2021/09/17 11:11:41;;;;;;;2.97;2.78;;;;;;;;;;6182430;23;20041;-69
2021/09/17 11:14:08;;;;;;;3.60;2.72;;;;;;;;;;6182288;23;20119;-68
2021/09/17 11:16:34;;;;;;;3.17;2.88;;;;;;;;;;6182006;23;20063;-69
2021/09/17 11:19:01;;;;;;;3.97;2.72;;;;;;;;;;6182417;23;20009;-69
2021/09/17 11:21:38;;;;;;;2.83;2.40;;;;;;;;;;6181694;23;20029;-67
2021/09/17 11:24:05;;;;;;;3.35;2.60;;;;;;;;;;6180692;23;20046;-69
2021/09/17 11:26:31;;;;;;;2.58;2.45;;;;;;;;;;6182270;23;20052;-68
2021/09/17 11:29:02;;;;;;;3.70;3.20;;;;;;;;;;6182615;23;20464;-69
2021/09/17 11:31:32;;;;;;;3.22;2.92;;;;;;;;;;6182025;23;20071;-69
2021/09/17 11:33:58;;;;;;;3.03;2.83;;;;;;;;;;6182276;23;20336;-69
2021/09/17 11:36:39;;;;;;;2.72;2.53;;;;;;;;;;6182023;23;20021;-69
2021/09/17 11:39:14;;;;;;;2.95;2.83;;;;;;;;;;6182518;23;20087;-69
2021/09/17 11:41:40;;;;;;;6.03;3.30;;;;;;;;;;6182484;23;20064;-69
2021/09/17 11:44:05;;;;;;;3.13;2.83;;;;;;;;;;6182095;23;20005;-69
2021/09/17 11:46:31;;;;;;;3.10;2.85;;;;;;;;;;6182073;23;20015;-69
2021/09/17 11:48:56;;;;;;;3.10;2.83;;;;;;;;;;6182019;23;20023;-69
2021/09/17 11:51:22;;;;;;;3.38;3.17;;;;;;;;;;6182134;23;20507;-68
2021/09/17 11:53:47;;;;;;;3.20;3.00;;;;;;;;;;6182189;23;20341;-69
2021/09/17 11:56:13;;;;;;;2.75;2.55;;;;;;;;;;6182234;23;20012;-68
2021/09/17 11:58:43;;;;;;;3.42;2.33;;;;;;;;;;6182244;23;19997;-67
2021/09/17 12:01:23;;;;;;;2.67;2.47;;;;;;;;;;6182483;23;20079;-67
2021/09/17 12:03:49;;;;;;;2.97;2.70;;;;;;;;;;6182128;23;20009;-67
2021/09/17 12:06:15;;;;;;;3.03;2.75;;;;;;;;;;6181853;23;20528;-67
2021/09/17 12:08:41;;;;;;;3.20;3.00;;;;;;;;;;6181799;23;20088;-67
2021/09/17 12:11:07;;;;;;;2.80;2.60;;;;;;;;;;6182145;23;20098;-67
2021/09/17 12:13:32;;;;;;;3.53;3.22;;;;;;;;;;6181877;23;20021;-60
2021/09/17 12:15:58;;;;;;;3.70;3.50;;;;;;;;;;6181784;23;20015;-60
2021/09/17 12:18:28;;;;;;;3.70;3.40;;;;;;;;;;6181294;23;20013;-60
2021/09/17 12:20:57;;;;;;;;;;;;;;;;;;6182343;23;20024;-60
2021/09/17 12:23:44;;;;;;;3.10;2.83;;;;;;;;;;6181514;23;20313;-60
2021/09/17 12:26:11;;;;;;;3.67;3.38;;;;;;;;;;6180088;23;20008;-60
2021/09/17 12:28:38;;;;;;;3.55;3.33;;;;;;;;;;6181675;23;20004;-60
2021/09/17 12:31:04;;;;;;;3.65;3.45;;;;;;;;;;6181442;23;20341;-60
2021/09/17 12:33:33;;;;;;;3.85;3.40;;;;;;;;;;6181705;23;20001;-60
2021/09/17 12:36:10;;;;;;;4.80;3.63;;;;;;;;;;6181159;23;20012;-60
2021/09/17 12:38:37;;;;;;;3.33;3.03;;;;;;;;;;6181601;23;20032;-60
2021/09/17 12:41:08;;;;;;;3.08;2.90;;;;;;;;;;6181438;23;20020;-60
2021/09/17 12:43:34;;;;;;;3.13;2.83;;;;;;;;;;6181426;23;20381;-60
2021/09/17 12:46:00;;;;;;;2.65;2.42;;;;;;;;;;6181264;23;19997;-60
2021/09/17 12:48:28;;;;;;;5.55;2.90;;;;;;;;;;6181370;23;20004;-59
2021/09/17 12:50:53;;;;;;;2.95;2.75;;;;;;;;;;6181678;23;20008;-60
2021/09/17 12:53:21;;;;;;;2.53;2.33;;;;;;;;;;6181397;23;20008;-60
2021/09/17 12:55:48;;;;;;;3.17;2.83;;;;;;;;;;6179747;23;20788;-60
2021/09/17 12:58:17;;;;;;;3.45;2.42;;;;;;;;;;6179914;23;20017;-60
2021/09/17 13:00:45;;;;;;;4.07;2.97;;;;;;;;;;6184792;23;20345;-60
2021/09/17 13:03:14;;;;;;;5.38;3.05;;;;;;;;;;6186199;23;20001;-60
2021/09/17 13:05:41;;;;;;;3.30;2.38;;;;;;;;;;6185663;23;20039;-60
2021/09/17 13:08:07;;;;;;;3.58;2.38;;;;;;;;;;6186057;23;20059;-68
2021/09/17 13:10:34;;;;;;;2.67;2.47;;;;;;;;;;6186132;23;20000;-68
2021/09/17 13:12:59;;;;;;;3.40;2.53;;;;;;;;;;6186043;23;19997;-68
2021/09/17 13:15:25;;;;;;;3.28;2.67;;;;;;;;;;6185728;23;20005;-67
2021/09/17 13:17:51;;;;;;;3.05;2.80;;;;;;;;;;6184727;23;20303;-67
2021/09/17 13:20:17;;;;;;;3.35;3.05;;;;;;;;;;6185967;23;20087;-60
2021/09/17 13:22:43;;;;;;;3.10;2.85;;;;;;;;;;6186288;23;20059;-60
2021/09/17 13:25:10;;;;;;;4.60;2.72;;;;;;;;;;6185728;23;20369;-60
2021/09/17 13:27:36;;;;;;;2.97;2.70;;;;;;;;;;6185729;23;19993;-60
2021/09/17 13:30:04;;;;;;;3.08;2.88;;;;;;;;;;6185960;23;20037;-60
2021/09/17 13:32:30;;;;;;;3.40;2.92;;;;;;;;;;6185820;23;20005;-60
2021/09/17 13:34:56;;;;;;;3.03;2.72;;;;;;;;;;6185509;23;20009;-60
2021/09/17 13:37:23;;;;;;;3.40;2.42;;;;;;;;;;6184397;23;20091;-60
2021/09/17 13:39:49;;;;;;;2.83;2.50;;;;;;;;;;6185714;23;20012;-60
2021/09/17 13:42:14;;;;;;;2.60;2.40;;;;;;;;;;6185395;23;20028;-60
2021/09/17 13:44:40;;;;;;;2.63;2.42;;;;;;;;;;6185436;23;20333;-68
2021/09/17 13:47:05;;;;;;;2.53;2.40;;;;;;;;;;6183917;23;20418;-67
2021/09/17 13:49:31;;;;;;;2.40;2.30;;;;;;;;;;6185358;23;20079;-67
2021/09/17 13:51:56;;;;;;;3.08;2.70;;;;;;;;;;6185236;23;20377;-67
2021/09/17 13:54:22;;;;;;;2.45;2.35;;;;;;;;;;6185309;23;20009;-68
2021/09/17 13:56:48;;;;;;;2.88;2.50;;;;;;;;;;6185456;23;20053;-67
2021/09/17 13:59:13;;;;;;;3.03;2.80;;;;;;;;;;6184307;23;20005;-67
2021/09/17 14:01:38;;;;;;;5.47;4.05;;;;;;;;;;6185813;23;20072;-68
2021/09/17 14:04:05;;;;;;;3.13;2.67;;;;;;;;;;6185894;23;20317;-67
2021/09/17 14:06:30;;;;;;;4.25;2.50;;;;;;;;;;6185732;23;19997;-68
2021/09/17 14:08:56;;;;;;;2.72;2.53;;;;;;;;;;6183986;23;20005;-67
2021/09/17 14:42:31;;;;;;;2.97;2.78;;;;;;;;;;5111673;27;20153;-64
2021/09/17 14:48:22;;;;;;;2.85;2.55;;;;;;;;;;5110896;28;20451;-65
2021/09/17 14:50:51;;;;;;;1.83;1.73;;;;;;;;;;5110700;28;20082;-65
2021/09/17 14:53:30;;;;;;;1.70;1.60;;;;;;;;;;5110868;28;20012;-64
2021/09/17 14:55:57;;;;;;;2.25;1.80;;;;;;;;;;5110701;28;20028;-64
2021/09/17 14:58:35;;;;;;;2.10;2.00;;;;;;;;;;5110655;28;20051;-64
2021/09/17 15:01:21;;;;;;;1.75;1.65;;;;;;;;;;5110577;28;20030;-64
2021/09/17 15:03:47;;;;;;;2.13;1.90;;;;;;;;;;5110500;28;20367;-64
2021/09/17 15:06:19;;;;;;;2.13;1.90;;;;;;;;;;5110388;28;20020;-64
2021/09/17 15:08:44;;;;;;;2.70;2.50;;;;;;;;;;5110602;28;20450;-64
2021/09/17 15:11:10;;;;;;;2.00;1.90;;;;;;;;;;5110350;28;20085;-64
2021/09/17 15:16:36;;;;;;;3.78;2.10;;;;;;;;;;5110575;28;20429;-64